Weather at Calgary / Springbank Airport

Public forecast

Using degrees Celsius for public forecast. Weather courtesy of forecast.io.

Current aviation weather report (METAR) for Calgary / Springbank Airport

Retrieved 2022/08/12 03:00 UTC (46 minutes ago):

CYBW 120300Z AUTO VRB02KT 9SM BKN110 BKN140 18/10 A3015 RMK SLP203 DENSITY ALT 5000FT

Aviation forecast (TAF) for Calgary / Springbank Airport

Retrieved 2022-08-12 00:00 UTC (4 hours ago):

TAF CYBW 112340Z 1200/1204 01012G22KT P6SM FEW070 SCT240 TEMPO 1200/1203 P6SM VCTS SCT070CB BKN180 FM120300 36008KT P6SM FEW080 RMK FCST BASED ON AUTO OBS NXT FCST BY 121200Z